createdAt,value
2019-01-05T00:03:55.719Z,6.6
2019-01-05T00:09:01.571Z,6.8
2019-01-05T00:14:07.075Z,6.3
2019-01-05T00:19:12.600Z,6.3
2019-01-05T00:24:17.957Z,6.4
2019-01-05T00:29:23.987Z,6.5
2019-01-05T00:34:29.733Z,5.9
2019-01-05T00:39:35.303Z,5.9
2019-01-05T00:44:40.882Z,6.1
2019-01-05T00:49:45.194Z,6.1
2019-01-05T00:54:50.952Z,6.1
2019-01-05T00:59:57.022Z,5.5
2019-01-05T01:05:02.815Z,5.5
2019-01-05T01:10:08.371Z,5.5
2019-01-05T01:15:13.734Z,5.5
2019-01-05T01:20:19.448Z,5.3
2019-01-05T01:25:24.492Z,5.7
2019-01-05T01:30:30.204Z,5.2
2019-01-05T01:35:35.287Z,5.1
2019-01-05T01:40:40.819Z,4.9
2019-01-05T01:45:46.515Z,4.8
2019-01-05T01:50:51.767Z,4.9
2019-01-05T01:55:56.924Z,4.8
2019-01-05T02:01:02.907Z,4.7
2019-01-05T02:06:08.358Z,4.7
2019-01-05T02:11:13.536Z,4.6
2019-01-05T02:16:19.275Z,4.4
2019-01-05T02:21:25.000Z,4.8
2019-01-05T02:26:30.020Z,4.8
2019-01-05T02:31:35.387Z,4.3
2019-01-05T02:36:40.849Z,4.2
2019-01-05T02:41:46.120Z,4.1
2019-01-05T02:46:51.837Z,4.5
2019-01-05T02:51:55.691Z,4.3
2019-01-05T02:57:00.662Z,4.3
2019-01-05T03:02:06.024Z,4.1
2019-01-05T03:07:11.080Z,4.1
2019-01-05T03:12:16.166Z,4
2019-01-05T03:17:21.186Z,4
2019-01-05T03:22:26.888Z,4.1
2019-01-05T03:27:32.232Z,3.7
2019-01-05T03:32:37.533Z,3.9
2019-01-05T03:37:43.556Z,3.8
2019-01-05T03:42:49.555Z,3.8
2019-01-05T03:47:54.500Z,3.9
2019-01-05T03:53:00.644Z,4.1
2019-01-05T03:58:06.434Z,3.5
2019-01-05T04:03:11.596Z,3.5
2019-01-05T04:08:17.252Z,3.6
2019-01-05T04:13:21.383Z,3.7
2019-01-05T04:18:26.874Z,3.4
2019-01-05T04:23:32.181Z,3.2
2019-01-05T04:28:37.095Z,3.3
2019-01-05T04:33:43.951Z,3.2
2019-01-05T04:38:48.004Z,3.2
2019-01-05T04:43:52.951Z,3.3
2019-01-05T04:48:57.854Z,2.9
2019-01-05T04:54:02.444Z,3.1
2019-01-05T04:59:07.464Z,3.2
2019-01-05T05:04:12.246Z,3
2019-01-05T05:09:17.332Z,3
2019-01-05T05:14:21.656Z,3
2019-01-05T05:19:26.000Z,2.8
2019-01-05T05:24:30.720Z,2.9
2019-01-05T05:29:35.169Z,2.9
2019-01-05T05:34:40.091Z,2.7
2019-01-05T05:39:45.108Z,2.6
2019-01-05T05:44:50.026Z,2.7
2019-01-05T05:49:54.774Z,2.4
2019-01-05T05:54:59.913Z,2.4
2019-01-05T06:00:04.306Z,2.6
2019-01-05T06:05:09.716Z,2.6
2019-01-05T06:10:13.268Z,2.5
2019-01-05T06:15:18.104Z,2.4
2019-01-05T06:20:23.116Z,2.4
2019-01-05T06:25:28.438Z,2.5
2019-01-05T06:30:32.826Z,2.1
2019-01-05T06:35:37.698Z,2.3
2019-01-05T06:40:42.687Z,2.3
2019-01-05T06:45:48.063Z,2.3
2019-01-05T06:50:52.399Z,2.2
2019-01-05T06:55:56.981Z,2.3
2019-01-05T07:01:01.347Z,2.1
2019-01-05T07:06:05.788Z,2.6
2019-01-05T07:11:10.680Z,2.4
2019-01-05T07:16:15.507Z,2.4
2019-01-05T07:21:20.484Z,2.3
2019-01-05T07:26:24.868Z,2.3
2019-01-05T07:31:29.612Z,2.4
2019-01-05T07:36:33.115Z,2.8
2019-01-05T07:41:37.477Z,2.6
2019-01-05T07:46:45.401Z,2.6
2019-01-05T07:51:49.455Z,2.7
2019-01-05T07:56:55.225Z,2.6
2019-01-05T08:02:00.232Z,2.7
2019-01-05T08:07:05.966Z,2.5
2019-01-05T08:12:11.891Z,2.5
2019-01-05T08:17:16.440Z,2.8
2019-01-05T08:22:21.745Z,2.6
2019-01-05T08:27:27.976Z,2.5
2019-01-05T08:32:35.050Z,2.5
2019-01-05T08:37:39.364Z,2.7
2019-01-05T08:42:42.007Z,2.8
2019-01-05T08:47:47.268Z,2.7
2019-01-05T08:52:50.558Z,3.1
2019-01-05T08:57:55.386Z,3.5
2019-01-05T09:02:59.794Z,3.5
2019-01-05T09:08:04.657Z,2.7
2019-01-05T09:13:08.247Z,2.9
2019-01-05T09:18:12.471Z,2.8
2019-01-05T09:23:16.028Z,2.5
2019-01-05T09:28:19.799Z,3
2019-01-05T09:33:24.648Z,3.4
2019-01-05T09:38:28.956Z,3.1
2019-01-05T09:43:32.550Z,3.3
2019-01-05T09:48:36.258Z,3.3
2019-01-05T09:53:39.873Z,3.5
2019-01-05T09:58:43.328Z,3.4
2019-01-05T10:03:47.426Z,3.6
2019-01-05T10:08:53.196Z,3.6
2019-01-05T10:13:58.539Z,3.7
2019-01-05T10:19:04.265Z,3.6
2019-01-05T10:24:09.849Z,3.6
2019-01-05T10:29:15.088Z,3.4
2019-01-05T10:34:20.107Z,3.6
2019-01-05T10:39:25.858Z,3.4
2019-01-05T10:44:31.468Z,3.6
2019-01-05T10:49:37.124Z,3
2019-01-05T10:54:42.741Z,3.9
2019-01-05T10:59:49.014Z,3.3
2019-01-05T11:04:55.143Z,3.5
2019-01-05T11:09:59.299Z,3.8
2019-01-05T11:15:04.371Z,4.3
2019-01-05T11:20:10.016Z,3.8
2019-01-05T11:25:15.641Z,3.7
2019-01-05T11:30:21.646Z,3.3
2019-01-05T11:35:27.240Z,3.5
2019-01-05T11:40:32.502Z,3.3
2019-01-05T11:45:38.339Z,3.4
2019-01-05T11:50:44.013Z,5.1
2019-01-05T11:55:49.866Z,4.8
2019-01-05T12:00:55.964Z,4.3
2019-01-05T12:06:01.918Z,4
2019-01-05T12:11:06.997Z,3.4
2019-01-05T12:16:13.049Z,3.4
2019-01-05T12:21:18.521Z,3.1
2019-01-05T12:26:23.675Z,3.3
2019-01-05T12:31:30.805Z,3
2019-01-05T12:36:35.975Z,2.8
2019-01-05T12:41:41.727Z,2.9
2019-01-05T12:46:48.207Z,2.9
2019-01-05T12:51:54.190Z,2.6
2019-01-05T12:56:59.839Z,2.8
2019-01-05T13:02:05.355Z,2.9
2019-01-05T13:07:11.101Z,2.8
2019-01-05T13:12:15.036Z,2.9
2019-01-05T13:17:20.896Z,2.9
2019-01-05T13:22:26.510Z,2.8
2019-01-05T13:27:32.637Z,2.8
2019-01-05T13:32:38.979Z,3.1
2019-01-05T13:37:46.635Z,2.7
2019-01-05T13:42:46.525Z,2.6
2019-01-05T13:47:49.894Z,2.8
2019-01-05T13:52:55.437Z,2.9
2019-01-05T13:58:00.297Z,2.5
2019-01-05T14:03:06.194Z,2.8
2019-01-05T14:08:11.602Z,2.6
2019-01-05T14:39:30.345Z,3.2
2019-01-05T14:44:26.302Z,3.2
2019-01-05T14:49:31.257Z,3.1
2019-01-05T15:42:58.870Z,3.5
2019-01-05T15:47:55.529Z,3.3
2019-01-05T15:53:01.001Z,3.5
2019-01-05T15:58:06.846Z,3.6
2019-01-05T16:03:12.838Z,3.5
2019-01-05T16:08:17.962Z,7.9
2019-01-05T16:13:22.947Z,8.3
2019-01-05T16:18:29.025Z,7.6
2019-01-05T16:23:34.897Z,6.6
2019-01-05T16:28:36.026Z,6.5
2019-01-05T16:33:41.318Z,5.8
2019-01-05T16:38:47.528Z,6.4
2019-01-05T16:43:53.002Z,6
2019-01-05T16:48:58.460Z,6.6
2019-01-05T16:54:03.807Z,6.3
2019-01-05T16:59:09.403Z,6.4
2019-01-05T17:04:15.638Z,5.9
2019-01-05T17:09:21.627Z,5.9
2019-01-05T17:14:26.083Z,5.6
2019-01-05T17:19:37.419Z,5.8
2019-01-05T17:24:32.642Z,5.6
2019-01-05T17:29:37.887Z,5.8
2019-01-05T17:34:43.122Z,5.9
2019-01-05T17:39:48.765Z,5.8
2019-01-05T17:44:54.040Z,27.6
2019-01-05T17:50:01.003Z,27
2019-01-05T17:55:06.601Z,23.6
2019-01-05T18:00:12.472Z,21.5
2019-01-05T18:05:18.183Z,20.2
2019-01-05T18:10:23.674Z,18
2019-01-05T18:15:29.143Z,18.2
2019-01-05T18:20:35.140Z,16.8
2019-01-05T18:25:40.311Z,15.2
2019-01-05T18:30:44.849Z,14.9
2019-01-05T18:35:49.916Z,14.6
2019-01-05T18:40:55.670Z,14.3
2019-01-05T18:46:00.727Z,14.1
2019-01-05T18:51:05.985Z,16.3
2019-01-05T18:56:11.435Z,16.5
2019-01-05T19:01:15.423Z,16
2019-01-05T19:06:20.606Z,11.9
2019-01-05T19:11:26.917Z,10.4
2019-01-05T19:16:31.080Z,8.6
2019-01-05T19:21:36.276Z,7.9
2019-01-05T19:26:42.172Z,7.2
2019-01-05T19:31:47.751Z,7.2
2019-01-05T19:36:53.491Z,6.7
2019-01-05T19:41:59.423Z,6.6
2019-01-05T19:47:05.173Z,6
2019-01-05T19:52:10.310Z,5.9
2019-01-05T19:57:15.795Z,6.4
2019-01-05T20:02:21.566Z,6
2019-01-05T20:07:26.548Z,6.3
2019-01-05T20:12:31.743Z,5.8
2019-01-05T20:17:35.931Z,6.3
2019-01-05T20:22:40.567Z,6.1
2019-01-05T20:27:45.817Z,5.6
2019-01-05T20:32:51.346Z,5.8
2019-01-05T20:37:56.473Z,5.5
2019-01-05T20:43:03.450Z,5.3
2019-01-05T20:48:08.780Z,5.1
2019-01-05T20:53:14.722Z,5.4
2019-01-05T20:58:20.888Z,5
2019-01-05T21:03:25.983Z,5.2
2019-01-05T21:08:30.037Z,5
2019-01-05T21:13:36.349Z,5.3
2019-01-05T21:18:41.906Z,5.1
2019-01-05T21:23:47.404Z,4.9
2019-01-05T21:28:52.920Z,4.9
2019-01-05T21:33:58.709Z,4.7
2019-01-05T21:39:03.796Z,4.5
2019-01-05T21:44:09.878Z,4.8
2019-01-05T21:49:15.193Z,4.3
2019-01-05T21:54:18.997Z,4.5
2019-01-05T21:59:24.490Z,4.5
2019-01-05T22:04:29.710Z,4.3
2019-01-05T22:09:34.679Z,4.5
2019-01-05T22:14:40.884Z,4.1
2019-01-05T22:19:46.380Z,3.9
2019-01-05T22:24:52.063Z,4.2
2019-01-05T22:29:57.113Z,4
2019-01-05T22:35:02.589Z,4.2
2019-01-05T22:40:07.589Z,4
2019-01-05T22:45:13.885Z,3.9
2019-01-05T22:50:19.637Z,4
2019-01-05T22:55:25.096Z,3.8
2019-01-05T23:00:30.458Z,3.8
2019-01-05T23:05:36.515Z,4.1
2019-01-05T23:10:41.627Z,3.8
2019-01-05T23:15:47.522Z,4
2019-01-05T23:20:53.335Z,4
2019-01-05T23:25:57.874Z,3.8
2019-01-05T23:31:03.507Z,3.6
2019-01-05T23:36:09.006Z,3.7
2019-01-05T23:41:14.499Z,3.9
2019-01-05T23:46:20.461Z,4
2019-01-05T23:51:25.665Z,4
2019-01-05T23:56:30.604Z,3.6
